This is the latest recevied weather packets stored in our database for station/object EA2RCU-15. If no packets are shown the sender has not sent any weather packets the latest 10 day(s).
| Time | Temp. | Humidity | Pressure | Rain* | Wind** | Luminosity | Snow |
|---|---|---|---|---|---|---|---|
| 1788627303 | 29.44° C | 42% | 1004 hPa | 0 mm | - | - | - |
| 1788627004 | 28.89° C | 42% | 1004 hPa | 0 mm | - | - | - |
| 1788626704 | 28.89° C | 43% | 1004 hPa | 0 mm | - | - | - |
| 1788626404 | 28.89° C | 42% | 1004 hPa | 0 mm | - | - | - |
| 1788626104 | 28.89° C | 42% | 1004 hPa | 0 mm | - | - | - |
| 1788625804 | 28.89° C | 42% | 1004 hPa | 0 mm | - | - | - |
| 1788625504 | 28.89° C | 41% | 1005 hPa | 0 mm | - | - | - |
| 1788625204 | 28.89° C | 40% | 1005 hPa | 0 mm | - | - | - |
| 1788624904 | 28.89° C | 40% | 1005 hPa | 0 mm | - | - | - |
| 1788624604 | 29.44° C | 40% | 1005 hPa | 0 mm | - | - | - |
| 1788624304 | 29.44° C | 40% | 1005 hPa | 0 mm | - | - | - |
| 1788624004 | 29.44° C | 40% | 1005 hPa | 0 mm | - | - | - |
| 1788623704 | 29.44° C | 39% | 1006 hPa | 0 mm | - | - | - |
| 1788623404 | 29.44° C | 39% | 1006 hPa | 0 mm | - | - | - |
| 1788623104 | 29.44° C | 38% | 1006 hPa | 0 mm | - | - | - |
| 1788622804 | 30° C | 36% | 1004 hPa | 0 mm | - | - | - |
| 1788622504 | 30.56° C | 34% | 1004 hPa | 0 mm | - | - | - |
| 1788622204 | 31.11° C | 31% | 1004 hPa | 0 mm | - | - | - |
| 1788621904 | 32.22° C | 29% | 1004 hPa | 0 mm | - | - | - |
| 1788621604 | 33.89° C | 28% | 1004 hPa | 0 mm | - | - | - |
| 1788621304 | 35.56° C | 28% | 1004 hPa | 0 mm | - | - | - |
| 1788621004 | 31.67° C | 33% | 1005 hPa | 0 mm | - | - | - |
| 1788620712 | 31.11° C | 33% | 1005 hPa | 0 mm | - | - | - |
| 1788620404 | 31.11° C | 33% | 1005 hPa | 0 mm | - | - | - |
| 1788620104 | 31.11° C | 33% | 1005 hPa | 0 mm | - | - | - |
* Rain latest hour (hover to see other rain measurements)
** Current wind speed in m/s (hover to see current wind gust speed)